sensor_id;sensor_type;location;lat;lon;timestamp;P1;durP1;ratioP1;P2;durP2;ratioP2
8260;SDS011;64115;50.170;8.242;2023-07-31T00:01:18;4.37;;;2.10;;
8260;SDS011;64115;50.170;8.242;2023-07-31T00:03:45;2.53;;;1.80;;
8260;SDS011;64115;50.170;8.242;2023-07-31T00:06:13;2.20;;;1.80;;
8260;SDS011;64115;50.170;8.242;2023-07-31T00:08:40;3.77;;;2.10;;
8260;SDS011;64115;50.170;8.242;2023-07-31T00:11:07;5.00;;;2.20;;
8260;SDS011;64115;50.170;8.242;2023-07-31T00:13:33;3.07;;;2.07;;
8260;SDS011;64115;50.170;8.242;2023-07-31T00:16:00;2.80;;;2.00;;
8260;SDS011;64115;50.170;8.242;2023-07-31T00:18:27;2.50;;;2.10;;
8260;SDS011;64115;50.170;8.242;2023-07-31T00:20:54;4.87;;;2.40;;
8260;SDS011;64115;50.170;8.242;2023-07-31T00:23:22;4.00;;;1.80;;
8260;SDS011;64115;50.170;8.242;2023-07-31T00:25:49;4.10;;;1.97;;
8260;SDS011;64115;50.170;8.242;2023-07-31T00:28:15;5.57;;;2.40;;
8260;SDS011;64115;50.170;8.242;2023-07-31T00:30:42;5.37;;;2.20;;
8260;SDS011;64115;50.170;8.242;2023-07-31T00:33:09;3.60;;;1.93;;
8260;SDS011;64115;50.170;8.242;2023-07-31T00:35:35;5.37;;;1.87;;
8260;SDS011;64115;50.170;8.242;2023-07-31T00:38:02;4.33;;;2.27;;
8260;SDS011;64115;50.170;8.242;2023-07-31T00:40:30;3.80;;;2.00;;
8260;SDS011;64115;50.170;8.242;2023-07-31T00:43:01;4.10;;;2.23;;
8260;SDS011;64115;50.170;8.242;2023-07-31T00:45:28;7.33;;;2.10;;
8260;SDS011;64115;50.170;8.242;2023-07-31T00:47:55;5.17;;;2.40;;
8260;SDS011;64115;50.170;8.242;2023-07-31T00:50:22;3.50;;;2.30;;
8260;SDS011;64115;50.170;8.242;2023-07-31T00:52:51;5.03;;;2.03;;
8260;SDS011;64115;50.170;8.242;2023-07-31T00:55:18;2.40;;;2.20;;
8260;SDS011;64115;50.170;8.242;2023-07-31T00:57:48;5.00;;;2.43;;
8260;SDS011;64115;50.170;8.242;2023-07-31T01:00:15;4.87;;;2.20;;
8260;SDS011;64115;50.170;8.242;2023-07-31T01:02:42;3.77;;;2.20;;
8260;SDS011;64115;50.170;8.242;2023-07-31T01:05:09;3.17;;;2.07;;
8260;SDS011;64115;50.170;8.242;2023-07-31T01:07:38;4.50;;;2.53;;
8260;SDS011;64115;50.170;8.242;2023-07-31T01:10:11;3.93;;;2.10;;
8260;SDS011;64115;50.170;8.242;2023-07-31T01:12:43;3.93;;;2.20;;
8260;SDS011;64115;50.170;8.242;2023-07-31T01:15:13;2.83;;;2.20;;
8260;SDS011;64115;50.170;8.242;2023-07-31T01:17:40;3.07;;;2.10;;
8260;SDS011;64115;50.170;8.242;2023-07-31T01:20:09;2.80;;;2.13;;
8260;SDS011;64115;50.170;8.242;2023-07-31T01:22:51;3.73;;;2.30;;
8260;SDS011;64115;50.170;8.242;2023-07-31T01:25:56;3.30;;;2.13;;
8260;SDS011;64115;50.170;8.242;2023-07-31T01:28:31;3.33;;;2.27;;
8260;SDS011;64115;50.170;8.242;2023-07-31T01:31:06;4.73;;;2.20;;
8260;SDS011;64115;50.170;8.242;2023-07-31T01:33:35;3.73;;;2.57;;
8260;SDS011;64115;50.170;8.242;2023-07-31T01:36:03;4.77;;;2.43;;
8260;SDS011;64115;50.170;8.242;2023-07-31T01:38:31;2.40;;;2.20;;
8260;SDS011;64115;50.170;8.242;2023-07-31T01:40:59;3.60;;;2.40;;
8260;SDS011;64115;50.170;8.242;2023-07-31T01:43:25;3.23;;;2.13;;
8260;SDS011;64115;50.170;8.242;2023-07-31T01:45:52;3.17;;;2.43;;
8260;SDS011;64115;50.170;8.242;2023-07-31T01:48:19;6.90;;;3.13;;
8260;SDS011;64115;50.170;8.242;2023-07-31T01:50:46;6.07;;;2.40;;
8260;SDS011;64115;50.170;8.242;2023-07-31T01:53:15;4.43;;;2.20;;
8260;SDS011;64115;50.170;8.242;2023-07-31T01:55:44;12.37;;;2.90;;
8260;SDS011;64115;50.170;8.242;2023-07-31T01:58:12;3.60;;;2.27;;
8260;SDS011;64115;50.170;8.242;2023-07-31T02:00:39;4.43;;;2.30;;
8260;SDS011;64115;50.170;8.242;2023-07-31T02:03:05;2.60;;;2.40;;
8260;SDS011;64115;50.170;8.242;2023-07-31T02:05:32;3.97;;;2.30;;
8260;SDS011;64115;50.170;8.242;2023-07-31T02:07:59;2.60;;;2.40;;
8260;SDS011;64115;50.170;8.242;2023-07-31T02:10:28;3.57;;;2.33;;
8260;SDS011;64115;50.170;8.242;2023-07-31T02:12:55;2.63;;;2.30;;
8260;SDS011;64115;50.170;8.242;2023-07-31T02:15:24;3.90;;;2.10;;
8260;SDS011;64115;50.170;8.242;2023-07-31T02:17:50;5.40;;;2.77;;
8260;SDS011;64115;50.170;8.242;2023-07-31T02:20:17;4.07;;;2.33;;
8260;SDS011;64115;50.170;8.242;2023-07-31T02:22:46;3.43;;;2.80;;
8260;SDS011;64115;50.170;8.242;2023-07-31T02:25:13;6.43;;;2.90;;
8260;SDS011;64115;50.170;8.242;2023-07-31T02:27:40;3.80;;;2.50;;
8260;SDS011;64115;50.170;8.242;2023-07-31T02:30:07;3.37;;;2.47;;
8260;SDS011;64115;50.170;8.242;2023-07-31T02:32:38;3.20;;;2.60;;
8260;SDS011;64115;50.170;8.242;2023-07-31T02:35:05;3.70;;;2.53;;
8260;SDS011;64115;50.170;8.242;2023-07-31T02:37:33;3.83;;;2.47;;
8260;SDS011;64115;50.170;8.242;2023-07-31T02:40:00;6.00;;;2.50;;
8260;SDS011;64115;50.170;8.242;2023-07-31T02:42:27;3.73;;;2.10;;
8260;SDS011;64115;50.170;8.242;2023-07-31T02:44:53;3.03;;;2.33;;
8260;SDS011;64115;50.170;8.242;2023-07-31T02:47:21;2.30;;;2.10;;
8260;SDS011;64115;50.170;8.242;2023-07-31T02:49:49;3.93;;;2.43;;
8260;SDS011;64115;50.170;8.242;2023-07-31T02:52:16;2.67;;;1.83;;
8260;SDS011;64115;50.170;8.242;2023-07-31T02:54:42;2.37;;;2.17;;
8260;SDS011;64115;50.170;8.242;2023-07-31T02:57:09;2.33;;;2.00;;
8260;SDS011;64115;50.170;8.242;2023-07-31T02:59:36;3.00;;;1.80;;
8260;SDS011;64115;50.170;8.242;2023-07-31T03:02:03;2.20;;;1.83;;
8260;SDS011;64115;50.170;8.242;2023-07-31T03:04:30;2.43;;;2.10;;
8260;SDS011;64115;50.170;8.242;2023-07-31T03:06:58;5.23;;;2.10;;
8260;SDS011;64115;50.170;8.242;2023-07-31T03:09:24;2.30;;;1.90;;
8260;SDS011;64115;50.170;8.242;2023-07-31T03:11:51;2.50;;;1.93;;
8260;SDS011;64115;50.170;8.242;2023-07-31T03:14:18;2.60;;;2.00;;
8260;SDS011;64115;50.170;8.242;2023-07-31T03:16:45;3.40;;;2.40;;
8260;SDS011;64115;50.170;8.242;2023-07-31T03:19:11;2.90;;;2.20;;
8260;SDS011;64115;50.170;8.242;2023-07-31T03:21:38;3.13;;;2.00;;
8260;SDS011;64115;50.170;8.242;2023-07-31T03:24:06;2.03;;;1.83;;
8260;SDS011;64115;50.170;8.242;2023-07-31T03:26:33;2.10;;;1.90;;
8260;SDS011;64115;50.170;8.242;2023-07-31T03:29:01;3.23;;;2.40;;
8260;SDS011;64115;50.170;8.242;2023-07-31T03:31:28;2.20;;;2.03;;
8260;SDS011;64115;50.170;8.242;2023-07-31T03:33:54;3.57;;;1.90;;
8260;SDS011;64115;50.170;8.242;2023-07-31T03:36:21;2.60;;;1.97;;
8260;SDS011;64115;50.170;8.242;2023-07-31T03:38:48;4.27;;;1.93;;
8260;SDS011;64115;50.170;8.242;2023-07-31T03:41:16;2.53;;;1.83;;
8260;SDS011;64115;50.170;8.242;2023-07-31T03:43:43;3.40;;;2.07;;
8260;SDS011;64115;50.170;8.242;2023-07-31T03:46:11;3.70;;;2.20;;
8260;SDS011;64115;50.170;8.242;2023-07-31T03:48:38;2.03;;;1.83;;
8260;SDS011;64115;50.170;8.242;2023-07-31T03:51:04;3.07;;;1.90;;
8260;SDS011;64115;50.170;8.242;2023-07-31T03:53:31;3.93;;;2.27;;
8260;SDS011;64115;50.170;8.242;2023-07-31T03:56:00;3.00;;;2.40;;
8260;SDS011;64115;50.170;8.242;2023-07-31T03:58:31;2.63;;;2.00;;
8260;SDS011;64115;50.170;8.242;2023-07-31T04:00:58;4.27;;;2.30;;
8260;SDS011;64115;50.170;8.242;2023-07-31T04:03:24;2.27;;;2.07;;
8260;SDS011;64115;50.170;8.242;2023-07-31T04:05:53;2.20;;;2.10;;
8260;SDS011;64115;50.170;8.242;2023-07-31T04:08:21;2.90;;;2.30;;
8260;SDS011;64115;50.170;8.242;2023-07-31T04:10:47;2.67;;;2.47;;
8260;SDS011;64115;50.170;8.242;2023-07-31T04:13:14;3.90;;;2.43;;
8260;SDS011;64115;50.170;8.242;2023-07-31T04:15:42;4.30;;;2.10;;
8260;SDS011;64115;50.170;8.242;2023-07-31T04:18:14;2.13;;;1.93;;
8260;SDS011;64115;50.170;8.242;2023-07-31T04:20:41;3.97;;;2.10;;
8260;SDS011;64115;50.170;8.242;2023-07-31T04:23:09;2.30;;;2.03;;
8260;SDS011;64115;50.170;8.242;2023-07-31T04:25:36;2.53;;;2.20;;
8260;SDS011;64115;50.170;8.242;2023-07-31T04:28:03;2.63;;;2.33;;
8260;SDS011;64115;50.170;8.242;2023-07-31T04:30:30;3.73;;;2.10;;
8260;SDS011;64115;50.170;8.242;2023-07-31T04:33:03;3.07;;;2.17;;
8260;SDS011;64115;50.170;8.242;2023-07-31T04:35:32;4.17;;;2.27;;
8260;SDS011;64115;50.170;8.242;2023-07-31T04:38:01;3.20;;;2.50;;
8260;SDS011;64115;50.170;8.242;2023-07-31T04:40:28;2.70;;;2.50;;
8260;SDS011;64115;50.170;8.242;2023-07-31T04:42:58;2.53;;;2.23;;
8260;SDS011;64115;50.170;8.242;2023-07-31T04:45:25;2.63;;;2.20;;
8260;SDS011;64115;50.170;8.242;2023-07-31T04:47:51;3.30;;;2.20;;
8260;SDS011;64115;50.170;8.242;2023-07-31T04:50:19;2.50;;;2.23;;
8260;SDS011;64115;50.170;8.242;2023-07-31T04:52:46;2.93;;;2.37;;
8260;SDS011;64115;50.170;8.242;2023-07-31T04:55:13;3.30;;;2.70;;
8260;SDS011;64115;50.170;8.242;2023-07-31T04:57:40;6.10;;;2.33;;
8260;SDS011;64115;50.170;8.242;2023-07-31T05:00:06;5.50;;;2.47;;
8260;SDS011;64115;50.170;8.242;2023-07-31T05:02:33;2.80;;;2.20;;
8260;SDS011;64115;50.170;8.242;2023-07-31T05:05:00;2.77;;;2.40;;
8260;SDS011;64115;50.170;8.242;2023-07-31T05:07:28;3.53;;;2.23;;
8260;SDS011;64115;50.170;8.242;2023-07-31T05:09:55;5.50;;;2.70;;
8260;SDS011;64115;50.170;8.242;2023-07-31T05:12:21;3.97;;;2.37;;
8260;SDS011;64115;50.170;8.242;2023-07-31T05:14:48;3.50;;;2.90;;
8260;SDS011;64115;50.170;8.242;2023-07-31T05:17:15;7.67;;;2.70;;
8260;SDS011;64115;50.170;8.242;2023-07-31T05:19:42;5.33;;;2.60;;
8260;SDS011;64115;50.170;8.242;2023-07-31T05:22:09;4.57;;;2.40;;
8260;SDS011;64115;50.170;8.242;2023-07-31T05:24:37;4.50;;;2.40;;
8260;SDS011;64115;50.170;8.242;2023-07-31T05:27:04;4.13;;;2.67;;
8260;SDS011;64115;50.170;8.242;2023-07-31T05:29:31;4.37;;;2.50;;
8260;SDS011;64115;50.170;8.242;2023-07-31T05:31:58;4.87;;;2.60;;
8260;SDS011;64115;50.170;8.242;2023-07-31T05:34:24;3.70;;;2.90;;
8260;SDS011;64115;50.170;8.242;2023-07-31T05:36:51;3.03;;;2.50;;
8260;SDS011;64115;50.170;8.242;2023-07-31T05:39:18;3.87;;;2.60;;
8260;SDS011;64115;50.170;8.242;2023-07-31T05:41:46;5.40;;;2.43;;
8260;SDS011;64115;50.170;8.242;2023-07-31T05:44:13;4.53;;;2.40;;
8260;SDS011;64115;50.170;8.242;2023-07-31T05:46:39;3.60;;;2.70;;
8260;SDS011;64115;50.170;8.242;2023-07-31T05:49:06;5.97;;;3.07;;
8260;SDS011;64115;50.170;8.242;2023-07-31T05:51:33;4.87;;;2.60;;
8260;SDS011;64115;50.170;8.242;2023-07-31T05:54:00;3.67;;;2.73;;
8260;SDS011;64115;50.170;8.242;2023-07-31T05:56:27;3.33;;;2.57;;
8260;SDS011;64115;50.170;8.242;2023-07-31T05:58:55;6.63;;;2.87;;
8260;SDS011;64115;50.170;8.242;2023-07-31T06:01:22;4.57;;;2.60;;
8260;SDS011;64115;50.170;8.242;2023-07-31T06:03:49;4.63;;;2.83;;
8260;SDS011;64115;50.170;8.242;2023-07-31T06:06:15;3.63;;;2.53;;
8260;SDS011;64115;50.170;8.242;2023-07-31T06:08:42;3.37;;;2.47;;
8260;SDS011;64115;50.170;8.242;2023-07-31T06:11:09;4.43;;;2.90;;
8260;SDS011;64115;50.170;8.242;2023-07-31T06:13:36;3.43;;;2.60;;
8260;SDS011;64115;50.170;8.242;2023-07-31T06:16:04;6.50;;;2.73;;
8260;SDS011;64115;50.170;8.242;2023-07-31T06:18:31;6.60;;;2.60;;
8260;SDS011;64115;50.170;8.242;2023-07-31T06:20:58;7.27;;;3.10;;
8260;SDS011;64115;50.170;8.242;2023-07-31T06:23:25;3.87;;;2.40;;
8260;SDS011;64115;50.170;8.242;2023-07-31T06:25:51;4.23;;;2.73;;
8260;SDS011;64115;50.170;8.242;2023-07-31T06:28:18;3.57;;;2.80;;
8260;SDS011;64115;50.170;8.242;2023-07-31T06:30:45;4.63;;;2.70;;
8260;SDS011;64115;50.170;8.242;2023-07-31T06:33:13;4.63;;;2.77;;
8260;SDS011;64115;50.170;8.242;2023-07-31T06:35:40;3.90;;;2.87;;
8260;SDS011;64115;50.170;8.242;2023-07-31T06:38:07;3.60;;;2.30;;
8260;SDS011;64115;50.170;8.242;2023-07-31T06:40:33;4.03;;;2.63;;
8260;SDS011;64115;50.170;8.242;2023-07-31T06:43:00;3.43;;;2.60;;
8260;SDS011;64115;50.170;8.242;2023-07-31T06:45:32;4.23;;;2.43;;
8260;SDS011;64115;50.170;8.242;2023-07-31T06:47:59;6.53;;;2.70;;
8260;SDS011;64115;50.170;8.242;2023-07-31T06:50:28;4.23;;;2.63;;
8260;SDS011;64115;50.170;8.242;2023-07-31T06:52:55;6.80;;;2.90;;
8260;SDS011;64115;50.170;8.242;2023-07-31T06:55:22;6.37;;;3.40;;
8260;SDS011;64115;50.170;8.242;2023-07-31T06:57:50;5.90;;;2.80;;
8260;SDS011;64115;50.170;8.242;2023-07-31T07:00:17;4.10;;;2.60;;
8260;SDS011;64115;50.170;8.242;2023-07-31T07:02:45;4.60;;;2.73;;
8260;SDS011;64115;50.170;8.242;2023-07-31T07:05:12;4.63;;;2.83;;
8260;SDS011;64115;50.170;8.242;2023-07-31T07:07:41;5.43;;;2.93;;
8260;SDS011;64115;50.170;8.242;2023-07-31T07:10:08;5.17;;;2.50;;
8260;SDS011;64115;50.170;8.242;2023-07-31T07:12:35;4.37;;;2.70;;
8260;SDS011;64115;50.170;8.242;2023-07-31T07:15:02;9.43;;;3.10;;
8260;SDS011;64115;50.170;8.242;2023-07-31T07:17:30;3.13;;;2.57;;
8260;SDS011;64115;50.170;8.242;2023-07-31T07:19:57;6.30;;;2.73;;
8260;SDS011;64115;50.170;8.242;2023-07-31T07:22:24;4.83;;;2.70;;
8260;SDS011;64115;50.170;8.242;2023-07-31T07:24:53;4.37;;;2.73;;
8260;SDS011;64115;50.170;8.242;2023-07-31T07:27:20;4.60;;;2.80;;
8260;SDS011;64115;50.170;8.242;2023-07-31T07:29:47;5.73;;;2.80;;
8260;SDS011;64115;50.170;8.242;2023-07-31T07:32:16;4.10;;;2.60;;
8260;SDS011;64115;50.170;8.242;2023-07-31T07:34:43;6.87;;;2.70;;
8260;SDS011;64115;50.170;8.242;2023-07-31T07:37:11;4.00;;;2.50;;
8260;SDS011;64115;50.170;8.242;2023-07-31T07:39:37;4.80;;;2.80;;
8260;SDS011;64115;50.170;8.242;2023-07-31T07:42:06;4.77;;;2.80;;
8260;SDS011;64115;50.170;8.242;2023-07-31T07:44:32;5.23;;;2.73;;
8260;SDS011;64115;50.170;8.242;2023-07-31T07:47:00;3.10;;;2.60;;
8260;SDS011;64115;50.170;8.242;2023-07-31T07:49:27;6.20;;;2.70;;
8260;SDS011;64115;50.170;8.242;2023-07-31T07:51:54;4.30;;;2.77;;
8260;SDS011;64115;50.170;8.242;2023-07-31T07:54:20;4.23;;;3.03;;
8260;SDS011;64115;50.170;8.242;2023-07-31T07:56:47;5.07;;;2.80;;
8260;SDS011;64115;50.170;8.242;2023-07-31T07:59:16;5.77;;;2.50;;
8260;SDS011;64115;50.170;8.242;2023-07-31T08:01:42;6.60;;;2.63;;
8260;SDS011;64115;50.170;8.242;2023-07-31T08:04:09;3.57;;;2.33;;
8260;SDS011;64115;50.170;8.242;2023-07-31T08:06:36;4.53;;;2.53;;
8260;SDS011;64115;50.170;8.242;2023-07-31T08:09:03;4.40;;;2.70;;
8260;SDS011;64115;50.170;8.242;2023-07-31T08:11:31;4.20;;;2.40;;
8260;SDS011;64115;50.170;8.242;2023-07-31T08:14:01;6.63;;;3.13;;
8260;SDS011;64115;50.170;8.242;2023-07-31T08:16:29;3.77;;;2.90;;
8260;SDS011;64115;50.170;8.242;2023-07-31T08:18:56;3.33;;;2.43;;
8260;SDS011;64115;50.170;8.242;2023-07-31T08:21:23;4.07;;;2.80;;
8260;SDS011;64115;50.170;8.242;2023-07-31T08:23:49;4.87;;;2.57;;
8260;SDS011;64115;50.170;8.242;2023-07-31T08:26:16;4.50;;;2.73;;
8260;SDS011;64115;50.170;8.242;2023-07-31T08:28:43;2.47;;;2.27;;
8260;SDS011;64115;50.170;8.242;2023-07-31T08:31:12;3.30;;;2.37;;
8260;SDS011;64115;50.170;8.242;2023-07-31T08:33:40;9.37;;;2.90;;
8260;SDS011;64115;50.170;8.242;2023-07-31T08:36:07;3.67;;;2.53;;
8260;SDS011;64115;50.170;8.242;2023-07-31T08:38:33;3.47;;;2.23;;
8260;SDS011;64115;50.170;8.242;2023-07-31T08:41:00;4.13;;;2.70;;
8260;SDS011;64115;50.170;8.242;2023-07-31T08:43:29;4.30;;;2.53;;
8260;SDS011;64115;50.170;8.242;2023-07-31T08:45:57;4.10;;;2.90;;
8260;SDS011;64115;50.170;8.242;2023-07-31T08:48:24;4.67;;;2.60;;
8260;SDS011;64115;50.170;8.242;2023-07-31T08:50:53;3.37;;;2.57;;
8260;SDS011;64115;50.170;8.242;2023-07-31T08:53:19;5.00;;;2.60;;
8260;SDS011;64115;50.170;8.242;2023-07-31T08:55:47;7.57;;;2.50;;
8260;SDS011;64115;50.170;8.242;2023-07-31T08:58:14;3.73;;;2.33;;
8260;SDS011;64115;50.170;8.242;2023-07-31T09:00:41;3.00;;;2.23;;
8260;SDS011;64115;50.170;8.242;2023-07-31T09:03:12;5.33;;;2.60;;
8260;SDS011;64115;50.170;8.242;2023-07-31T09:05:42;6.37;;;2.63;;
8260;SDS011;64115;50.170;8.242;2023-07-31T09:08:12;5.83;;;2.60;;
8260;SDS011;64115;50.170;8.242;2023-07-31T09:10:42;4.07;;;2.53;;
8260;SDS011;64115;50.170;8.242;2023-07-31T09:13:11;4.73;;;3.23;;
8260;SDS011;64115;50.170;8.242;2023-07-31T09:15:38;4.07;;;2.93;;
8260;SDS011;64115;50.170;8.242;2023-07-31T09:18:06;4.30;;;2.70;;
8260;SDS011;64115;50.170;8.242;2023-07-31T09:20:33;3.77;;;2.57;;
8260;SDS011;64115;50.170;8.242;2023-07-31T09:23:07;5.00;;;2.73;;
8260;SDS011;64115;50.170;8.242;2023-07-31T09:25:37;4.17;;;2.90;;
8260;SDS011;64115;50.170;8.242;2023-07-31T09:28:05;6.07;;;2.90;;
8260;SDS011;64115;50.170;8.242;2023-07-31T09:30:43;3.87;;;2.67;;
8260;SDS011;64115;50.170;8.242;2023-07-31T09:33:12;5.13;;;2.70;;
8260;SDS011;64115;50.170;8.242;2023-07-31T09:35:39;4.70;;;2.80;;
8260;SDS011;64115;50.170;8.242;2023-07-31T09:38:07;3.10;;;2.47;;
8260;SDS011;64115;50.170;8.242;2023-07-31T09:40:37;5.13;;;2.80;;
8260;SDS011;64115;50.170;8.242;2023-07-31T09:43:07;3.27;;;2.40;;
8260;SDS011;64115;50.170;8.242;2023-07-31T09:45:36;4.53;;;2.30;;
8260;SDS011;64115;50.170;8.242;2023-07-31T09:48:06;3.10;;;2.80;;
8260;SDS011;64115;50.170;8.242;2023-07-31T09:50:36;4.20;;;2.63;;
8260;SDS011;64115;50.170;8.242;2023-07-31T09:53:04;2.93;;;2.43;;
8260;SDS011;64115;50.170;8.242;2023-07-31T09:55:31;5.73;;;3.20;;
8260;SDS011;64115;50.170;8.242;2023-07-31T09:58:01;3.60;;;2.47;;
8260;SDS011;64115;50.170;8.242;2023-07-31T10:00:29;3.60;;;2.40;;
8260;SDS011;64115;50.170;8.242;2023-07-31T10:02:58;4.70;;;2.60;;
8260;SDS011;64115;50.170;8.242;2023-07-31T10:05:26;3.73;;;2.40;;
8260;SDS011;64115;50.170;8.242;2023-07-31T10:07:57;3.67;;;2.60;;
8260;SDS011;64115;50.170;8.242;2023-07-31T10:10:24;3.83;;;2.40;;
8260;SDS011;64115;50.170;8.242;2023-07-31T10:12:52;5.90;;;2.90;;
8260;SDS011;64115;50.170;8.242;2023-07-31T10:15:21;2.90;;;2.70;;
8260;SDS011;64115;50.170;8.242;2023-07-31T10:17:48;2.97;;;2.30;;
8260;SDS011;64115;50.170;8.242;2023-07-31T10:20:16;3.53;;;2.60;;
8260;SDS011;64115;50.170;8.242;2023-07-31T10:22:43;3.70;;;2.63;;
8260;SDS011;64115;50.170;8.242;2023-07-31T10:25:11;2.93;;;2.43;;
8260;SDS011;64115;50.170;8.242;2023-07-31T10:27:39;2.57;;;2.30;;
8260;SDS011;64115;50.170;8.242;2023-07-31T10:30:06;3.50;;;2.40;;
8260;SDS011;64115;50.170;8.242;2023-07-31T10:32:37;3.13;;;2.83;;
8260;SDS011;64115;50.170;8.242;2023-07-31T10:35:05;2.50;;;2.30;;
8260;SDS011;64115;50.170;8.242;2023-07-31T10:37:36;4.07;;;2.60;;
8260;SDS011;64115;50.170;8.242;2023-07-31T10:40:05;5.17;;;2.60;;
8260;SDS011;64115;50.170;8.242;2023-07-31T10:42:36;4.90;;;2.43;;
8260;SDS011;64115;50.170;8.242;2023-07-31T10:45:05;4.17;;;2.40;;
8260;SDS011;64115;50.170;8.242;2023-07-31T10:47:40;3.33;;;2.47;;
8260;SDS011;64115;50.170;8.242;2023-07-31T10:50:14;2.93;;;2.50;;
8260;SDS011;64115;50.170;8.242;2023-07-31T10:52:48;5.43;;;2.47;;
8260;SDS011;64115;50.170;8.242;2023-07-31T10:55:26;4.07;;;2.60;;
8260;SDS011;64115;50.170;8.242;2023-07-31T10:57:55;3.00;;;2.27;;
8260;SDS011;64115;50.170;8.242;2023-07-31T11:00:24;2.60;;;2.40;;
8260;SDS011;64115;50.170;8.242;2023-07-31T11:02:58;3.23;;;2.60;;
8260;SDS011;64115;50.170;8.242;2023-07-31T11:08:17;3.50;;;2.50;;
8260;SDS011;64115;50.170;8.242;2023-07-31T11:10:47;3.87;;;2.37;;
8260;SDS011;64115;50.170;8.242;2023-07-31T11:13:15;2.90;;;2.57;;
8260;SDS011;64115;50.170;8.242;2023-07-31T11:15:41;2.53;;;2.30;;
8260;SDS011;64115;50.170;8.242;2023-07-31T11:18:10;4.07;;;2.60;;
8260;SDS011;64115;50.170;8.242;2023-07-31T11:20:37;4.10;;;2.60;;
8260;SDS011;64115;50.170;8.242;2023-07-31T11:23:06;4.70;;;2.43;;
8260;SDS011;64115;50.170;8.242;2023-07-31T11:25:34;6.77;;;2.40;;
8260;SDS011;64115;50.170;8.242;2023-07-31T11:28:03;2.80;;;2.20;;
8260;SDS011;64115;50.170;8.242;2023-07-31T11:30:31;5.90;;;2.93;;
8260;SDS011;64115;50.170;8.242;2023-07-31T11:32:58;3.03;;;2.40;;
8260;SDS011;64115;50.170;8.242;2023-07-31T11:35:26;2.63;;;2.40;;
8260;SDS011;64115;50.170;8.242;2023-07-31T11:37:55;3.67;;;2.13;;
8260;SDS011;64115;50.170;8.242;2023-07-31T11:40:22;2.83;;;2.57;;
8260;SDS011;64115;50.170;8.242;2023-07-31T11:42:53;4.00;;;2.33;;
8260;SDS011;64115;50.170;8.242;2023-07-31T11:45:24;2.60;;;2.40;;
8260;SDS011;64115;50.170;8.242;2023-07-31T11:47:52;3.40;;;2.20;;
8260;SDS011;64115;50.170;8.242;2023-07-31T11:50:20;4.27;;;2.50;;
8260;SDS011;64115;50.170;8.242;2023-07-31T11:52:51;3.60;;;2.03;;
8260;SDS011;64115;50.170;8.242;2023-07-31T11:55:21;3.00;;;2.20;;
8260;SDS011;64115;50.170;8.242;2023-07-31T11:57:48;3.03;;;2.33;;
8260;SDS011;64115;50.170;8.242;2023-07-31T12:00:16;2.60;;;2.40;;
8260;SDS011;64115;50.170;8.242;2023-07-31T12:02:43;3.80;;;2.17;;
8260;SDS011;64115;50.170;8.242;2023-07-31T12:05:11;3.37;;;2.50;;
8260;SDS011;64115;50.170;8.242;2023-07-31T12:07:49;2.83;;;2.20;;
8260;SDS011;64115;50.170;8.242;2023-07-31T12:10:23;2.37;;;2.17;;
8260;SDS011;64115;50.170;8.242;2023-07-31T12:13:00;3.10;;;2.53;;
8260;SDS011;64115;50.170;8.242;2023-07-31T12:15:30;3.03;;;2.80;;
8260;SDS011;64115;50.170;8.242;2023-07-31T12:18:04;3.13;;;2.13;;
8260;SDS011;64115;50.170;8.242;2023-07-31T12:20:33;3.13;;;2.20;;
8260;SDS011;64115;50.170;8.242;2023-07-31T12:23:01;2.30;;;2.10;;
8260;SDS011;64115;50.170;8.242;2023-07-31T12:25:29;3.53;;;2.63;;
8260;SDS011;64115;50.170;8.242;2023-07-31T12:27:57;2.70;;;2.23;;
8260;SDS011;64115;50.170;8.242;2023-07-31T12:30:32;3.43;;;2.53;;
8260;SDS011;64115;50.170;8.242;2023-07-31T12:33:02;3.33;;;2.30;;
8260;SDS011;64115;50.170;8.242;2023-07-31T12:35:34;4.30;;;2.70;;
8260;SDS011;64115;50.170;8.242;2023-07-31T12:38:03;2.50;;;1.90;;
8260;SDS011;64115;50.170;8.242;2023-07-31T12:40:30;4.13;;;2.23;;
8260;SDS011;64115;50.170;8.242;2023-07-31T12:42:57;2.43;;;2.00;;
8260;SDS011;64115;50.170;8.242;2023-07-31T12:45:24;2.77;;;2.30;;
8260;SDS011;64115;50.170;8.242;2023-07-31T12:47:52;2.70;;;2.20;;
8260;SDS011;64115;50.170;8.242;2023-07-31T12:50:18;2.40;;;2.20;;
8260;SDS011;64115;50.170;8.242;2023-07-31T12:52:48;2.87;;;2.00;;
8260;SDS011;64115;50.170;8.242;2023-07-31T12:55:16;2.43;;;2.20;;
8260;SDS011;64115;50.170;8.242;2023-07-31T12:57:46;2.53;;;2.30;;
8260;SDS011;64115;50.170;8.242;2023-07-31T13:00:13;2.93;;;2.40;;
8260;SDS011;64115;50.170;8.242;2023-07-31T13:02:40;3.57;;;2.30;;
8260;SDS011;64115;50.170;8.242;2023-07-31T13:05:07;3.93;;;2.67;;
8260;SDS011;64115;50.170;8.242;2023-07-31T13:07:34;3.67;;;2.30;;
8260;SDS011;64115;50.170;8.242;2023-07-31T13:10:01;2.80;;;2.33;;
8260;SDS011;64115;50.170;8.242;2023-07-31T13:12:29;4.47;;;2.40;;
8260;SDS011;64115;50.170;8.242;2023-07-31T13:14:56;2.73;;;2.07;;
8260;SDS011;64115;50.170;8.242;2023-07-31T13:17:23;3.50;;;2.40;;
8260;SDS011;64115;50.170;8.242;2023-07-31T13:19:50;6.30;;;2.27;;
8260;SDS011;64115;50.170;8.242;2023-07-31T13:22:16;3.00;;;2.40;;
8260;SDS011;64115;50.170;8.242;2023-07-31T13:24:43;5.30;;;2.43;;
8260;SDS011;64115;50.170;8.242;2023-07-31T13:27:10;2.87;;;2.30;;
8260;SDS011;64115;50.170;8.242;2023-07-31T13:29:38;2.60;;;2.33;;
8260;SDS011;64115;50.170;8.242;2023-07-31T13:32:05;6.70;;;2.27;;
8260;SDS011;64115;50.170;8.242;2023-07-31T13:34:32;2.63;;;2.10;;
8260;SDS011;64115;50.170;8.242;2023-07-31T13:36:59;2.57;;;2.37;;
8260;SDS011;64115;50.170;8.242;2023-07-31T13:39:27;2.73;;;2.10;;
8260;SDS011;64115;50.170;8.242;2023-07-31T13:41:53;2.33;;;2.10;;
8260;SDS011;64115;50.170;8.242;2023-07-31T13:44:20;3.20;;;2.50;;
8260;SDS011;64115;50.170;8.242;2023-07-31T13:46:51;2.97;;;2.27;;
8260;SDS011;64115;50.170;8.242;2023-07-31T13:49:18;2.17;;;2.00;;
8260;SDS011;64115;50.170;8.242;2023-07-31T13:51:45;3.10;;;2.20;;
8260;SDS011;64115;50.170;8.242;2023-07-31T13:54:11;2.47;;;2.27;;
8260;SDS011;64115;50.170;8.242;2023-07-31T13:56:40;3.30;;;2.23;;
8260;SDS011;64115;50.170;8.242;2023-07-31T13:59:07;2.07;;;1.87;;
8260;SDS011;64115;50.170;8.242;2023-07-31T14:01:34;2.47;;;1.97;;
8260;SDS011;64115;50.170;8.242;2023-07-31T14:04:02;2.10;;;2.00;;
8260;SDS011;64115;50.170;8.242;2023-07-31T14:06:29;2.93;;;2.03;;
8260;SDS011;64115;50.170;8.242;2023-07-31T14:08:55;2.57;;;2.20;;
8260;SDS011;64115;50.170;8.242;2023-07-31T14:11:22;3.50;;;1.90;;
8260;SDS011;64115;50.170;8.242;2023-07-31T14:13:49;2.13;;;2.03;;
8260;SDS011;64115;50.170;8.242;2023-07-31T14:16:17;2.80;;;2.00;;
8260;SDS011;64115;50.170;8.242;2023-07-31T14:18:44;3.47;;;2.00;;
8260;SDS011;64115;50.170;8.242;2023-07-31T14:21:12;4.53;;;1.77;;
8260;SDS011;64115;50.170;8.242;2023-07-31T14:23:39;1.80;;;1.70;;
8260;SDS011;64115;50.170;8.242;2023-07-31T14:26:06;3.17;;;2.00;;
8260;SDS011;64115;50.170;8.242;2023-07-31T14:28:33;2.70;;;2.00;;
8260;SDS011;64115;50.170;8.242;2023-07-31T14:31:00;3.27;;;1.87;;
8260;SDS011;64115;50.170;8.242;2023-07-31T14:33:27;3.10;;;2.13;;
8260;SDS011;64115;50.170;8.242;2023-07-31T14:35:53;1.70;;;1.60;;
8260;SDS011;64115;50.170;8.242;2023-07-31T14:38:22;2.77;;;1.70;;
8260;SDS011;64115;50.170;8.242;2023-07-31T14:40:48;3.53;;;2.07;;
8260;SDS011;64115;50.170;8.242;2023-07-31T14:43:15;2.07;;;1.87;;
8260;SDS011;64115;50.170;8.242;2023-07-31T14:45:42;2.77;;;2.00;;
8260;SDS011;64115;50.170;8.242;2023-07-31T14:48:11;2.70;;;1.87;;
8260;SDS011;64115;50.170;8.242;2023-07-31T14:50:38;4.13;;;2.10;;
8260;SDS011;64115;50.170;8.242;2023-07-31T14:53:04;3.13;;;1.80;;
8260;SDS011;64115;50.170;8.242;2023-07-31T14:55:33;2.10;;;1.90;;
8260;SDS011;64115;50.170;8.242;2023-07-31T14:57:59;2.27;;;1.83;;
8260;SDS011;64115;50.170;8.242;2023-07-31T15:00:26;2.40;;;1.97;;
8260;SDS011;64115;50.170;8.242;2023-07-31T15:02:56;2.40;;;2.10;;
8260;SDS011;64115;50.170;8.242;2023-07-31T15:05:23;1.90;;;1.80;;
8260;SDS011;64115;50.170;8.242;2023-07-31T15:07:49;1.93;;;1.83;;